EHVL

Vlieland Heliport

Vlieland, The Netherlands
METAR EHVL 251425Z AUTO 22010KT 9999 FEW033 BKN330 BKN390 15/07 Q1037 BLU
Observed Flight Rules
Sep-25 @ 14:25 UTC (42 minutes ago) Visual Flight Rules
Wind Visibility Clouds
220° at 10 knots 10,000+ meters
  • Few at 3,300' AGL
  • Broken at 33,000' AGL
  • Broken at 39,000' AGL
Temperatures Readings
Current 15°C / 59°F
Dewpoint 7°C / 45°F
Humidity 59%
Altimeter 30.62" Hg
Pressure 1037 hPa
Elevation 5
METAR EHVL 251425Z AUTO 22010KT 9999 FEW033 BKN330 BKN390 15/07 Q1037 BLU
Observed Flight Rules
Sep-25 @ 14:25 UTC
(42 minutes ago)
VFR
Wind Visibility
220° at 10 knots 10,000+ meters
Clouds
  • Few at 3,300' AGL
  • Broken at 33,000' AGL
  • Broken at 39,000' AGL
Temperature Dewpoint
15°C / 59°F 7°C / 45°F
Humidity Altimeter Pressure
59% 30.62" Hg 1037 hPa